Time;durP1;ratioP1;P1;durP2;ratioP2;P2;SDS_P1;SDS_P2;PMS_P1;PMS_P2;Temp;Humidity;BMP_temperature;BMP_pressure;BME280_temperature;BME280_humidity;BME280_pressure;Samples;Min_cycle;Max_cycle;Signal;HPM_P1;HPM_P2
2023/05/13 00:00:12;;;;;;;3.55;2.85;;;;;;;8.52;100.00;95763.16;1022255;28;20027;-72
2023/05/13 00:00:43;;;;;;;3.20;2.90;;;;;;;8.49;100.00;95758.44;1030136;28;20053;-72
2023/05/13 00:01:14;;;;;;;5.40;2.95;;;;;;;8.48;100.00;95751.59;1030001;28;20774;-71
2023/05/13 00:01:44;;;;;;;3.30;2.70;;;;;;;8.47;100.00;95757.88;1018075;29;20529;-72
2023/05/13 00:02:15;;;;;;;4.70;3.20;;;;;;;8.46;100.00;95756.31;1017942;29;20268;-72
2023/05/13 00:02:45;;;;;;;4.32;3.28;;;;;;;8.48;100.00;95764.69;1017844;29;20038;-73
2023/05/13 00:03:16;;;;;;;3.95;3.17;;;;;;;8.51;100.00;95756.34;1018236;28;20035;-73
2023/05/13 00:03:46;;;;;;;4.30;2.80;;;;;;;8.51;100.00;95756.34;1030017;28;20034;-73
2023/05/13 00:04:16;;;;;;;3.13;2.42;;;;;;;8.49;100.00;95758.44;1029755;28;20025;-72
2023/05/13 00:04:47;;;;;;;3.40;2.80;;;;;;;8.48;100.00;95751.59;1029683;28;20814;-72
2023/05/13 00:05:17;;;;;;;3.35;2.85;;;;;;;8.51;100.00;95758.94;1025881;28;20476;-73
2023/05/13 00:05:48;;;;;;;3.83;2.70;;;;;;;8.51;100.00;95756.34;1025879;28;20022;-72
2023/05/13 00:06:18;;;;;;;3.20;2.78;;;;;;;8.48;100.00;95762.06;1029901;28;20710;-72
2023/05/13 00:06:49;;;;;;;4.15;2.80;;;;;;;8.39;100.00;95745.28;1026118;28;20404;-72
2023/05/13 00:07:19;;;;;;;3.22;2.90;;;;;;;8.43;100.00;95754.19;1026032;28;20098;-72
2023/05/13 00:07:50;;;;;;;4.03;3.25;;;;;;;8.45;100.00;95752.91;1021918;29;20019;-73
2023/05/13 00:08:20;;;;;;;3.60;2.88;;;;;;;8.48;100.00;95762.06;1018391;28;20020;-72
2023/05/13 00:08:51;;;;;;;3.08;2.63;;;;;;;8.39;100.00;95747.88;1021443;28;20490;-73
2023/05/13 00:09:21;;;;;;;3.53;3.05;;;;;;;8.46;100.00;95756.31;1025935;28;20035;-73
2023/05/13 00:09:52;;;;;;;3.50;2.88;;;;;;;8.47;100.00;95756.06;1030177;28;20701;-73
2023/05/13 00:10:23;;;;;;;3.22;2.92;;;;;;;8.45;100.00;95754.72;1029950;28;20030;-72
2023/05/13 00:10:53;;;;;;;3.17;2.75;;;;;;;8.52;100.00;95757.13;1026365;28;20543;-72
2023/05/13 00:11:24;;;;;;;3.45;2.95;;;;;;;8.52;100.00;95762.34;1029783;28;20261;-72
2023/05/13 00:11:54;;;;;;;3.47;2.70;;;;;;;8.54;100.00;95760.28;1026173;28;20560;-72
2023/05/13 00:12:29;;;;;;;3.50;2.83;;;;;;;8.55;100.00;95767.91;1026207;28;20110;-72
2023/05/13 00:13:00;;;;;;;3.75;2.67;;;;;;;8.48;100.00;95762.88;1027227;28;20026;-73
2023/05/13 00:13:31;;;;;;;3.60;2.60;;;;;;;8.50;100.00;95760.00;1018369;29;20358;-72
2023/05/13 00:14:01;;;;;;;2.80;2.40;;;;;;;8.44;100.00;95755.75;1018755;29;20166;-72
2023/05/13 00:14:32;;;;;;;2.85;2.47;;;;;;;8.46;100.00;95764.16;1023148;28;20854;-72
2023/05/13 00:15:02;;;;;;;3.03;2.72;;;;;;;8.40;100.00;95749.44;1022130;28;20114;-72
2023/05/13 00:15:33;;;;;;;3.13;2.80;;;;;;;8.44;100.00;95761.78;1022110;29;20027;-72
2023/05/13 00:16:04;;;;;;;3.63;2.83;;;;;;;8.44;100.00;95764.38;1022093;28;20031;-71
2023/05/13 00:16:34;;;;;;;3.10;2.80;;;;;;;8.40;100.00;95760.69;1022047;29;20030;-72
2023/05/13 00:17:08;;;;;;;3.58;3.28;;;;;;;8.44;100.00;95759.16;1014240;29;20505;-71
2023/05/13 00:17:39;;;;;;;4.60;2.67;;;;;;;8.39;100.00;95755.72;1018270;29;20784;-73
2023/05/13 00:18:09;;;;;;;3.97;2.55;;;;;;;8.38;100.00;95748.91;1017717;29;20252;-73
2023/05/13 00:18:40;;;;;;;5.68;2.70;;;;;;;8.45;100.00;95763.38;1025308;28;20018;-72
2023/05/13 00:19:10;;;;;;;3.17;2.72;;;;;;;8.45;100.00;95758.13;1017856;29;20028;-71
2023/05/13 00:19:41;;;;;;;3.40;2.83;;;;;;;8.50;100.00;95767.84;1017576;29;20548;-72
2023/05/13 00:20:11;;;;;;;3.42;2.40;;;;;;;8.51;100.00;95766.78;1025908;28;20054;-72
2023/05/13 00:20:42;;;;;;;5.68;2.33;;;;;;;8.50;100.00;95771.25;1022007;29;20461;-73
2023/05/13 00:21:12;;;;;;;3.22;2.50;;;;;;;8.51;100.00;95766.78;1025847;28;20027;-72
2023/05/13 00:21:43;;;;;;;4.68;2.60;;;;;;;8.50;100.00;95773.06;1026005;28;20434;-72
2023/05/13 00:22:13;;;;;;;3.75;2.60;;;;;;;8.45;100.00;95757.31;1017963;29;20028;-72
2023/05/13 00:22:44;;;;;;;4.88;2.83;;;;;;;8.48;100.00;95760.25;1018011;29;20091;-72
2023/05/13 00:23:15;;;;;;;4.22;2.80;;;;;;;8.49;100.00;95766.28;1018121;29;20015;-74
2023/05/13 00:23:45;;;;;;;2.50;2.28;;;;;;;8.41;100.00;95751.03;1022230;28;20023;-72
2023/05/13 00:24:16;;;;;;;7.57;2.25;;;;;;;8.40;100.00;95752.06;1026017;28;20103;-70
2023/05/13 00:24:46;;;;;;;2.83;2.50;;;;;;;8.49;100.00;95761.84;1025949;28;20023;-73
2023/05/13 00:25:17;;;;;;;6.85;2.70;;;;;;;8.34;100.00;95745.97;1021867;29;20039;-73
2023/05/13 00:25:47;;;;;;;2.83;2.50;;;;;;;8.46;100.00;95761.53;1018024;29;20375;-71
2023/05/13 00:26:18;;;;;;;3.30;2.38;;;;;;;8.42;100.00;95748.19;1017740;29;20024;-69
2023/05/13 00:26:48;;;;;;;2.97;2.67;;;;;;;8.48;100.00;95764.69;1021979;28;20031;-72
2023/05/13 00:27:18;;;;;;;3.47;2.40;;;;;;;8.50;100.00;95770.47;1026098;28;20124;-71
2023/05/13 00:27:50;;;;;;;3.42;2.40;;;;;;;8.53;100.00;95764.75;1026043;28;20056;-70
2023/05/13 00:28:20;;;;;;;4.68;2.83;;;;;;;8.51;100.00;95766.78;1025937;28;20073;-72
2023/05/13 00:28:51;;;;;;;3.15;2.40;;;;;;;8.53;100.00;95764.75;1021650;29;21053;-73
2023/05/13 00:29:21;;;;;;;2.35;2.15;;;;;;;8.49;100.00;95758.44;1017807;29;20040;-71
2023/05/13 00:29:51;;;;;;;2.75;2.40;;;;;;;8.50;100.00;95760.78;1018067;29;20035;-73
2023/05/13 00:30:22;;;;;;;3.45;2.53;;;;;;;8.52;100.00;95763.16;1018010;28;20801;-70
2023/05/13 00:30:52;;;;;;;3.05;2.40;;;;;;;8.51;100.00;95758.94;1026059;28;20031;-72
2023/05/13 00:31:23;;;;;;;2.72;2.40;;;;;;;8.50;100.00;95760.00;1026280;28;20556;-71
2023/05/13 00:31:53;;;;;;;2.88;2.58;;;;;;;8.48;100.00;95759.44;1027575;28;20039;-73
2023/05/13 00:32:24;;;;;;;3.10;2.70;;;;;;;8.49;100.00;95761.03;1029945;28;20074;-72
2023/05/13 00:32:54;;;;;;;2.58;2.38;;;;;;;8.49;100.00;95761.03;1030113;28;20040;-72
2023/05/13 00:33:25;;;;;;;3.58;2.72;;;;;;;8.46;100.00;95754.47;1025728;28;20126;-73
2023/05/13 00:33:55;;;;;;;2.60;2.28;;;;;;;8.44;100.00;95759.16;1026109;28;20026;-74
2023/05/13 00:34:26;;;;;;;2.92;2.50;;;;;;;8.40;100.00;95758.09;1029945;28;20030;-71
2023/05/13 00:34:56;;;;;;;2.97;2.67;;;;;;;8.41;100.00;95753.63;1033943;28;20022;-72
2023/05/13 00:35:27;;;;;;;2.97;2.67;;;;;;;8.38;100.00;95752.31;1034193;28;20038;-73
2023/05/13 00:35:57;;;;;;;2.75;2.50;;;;;;;8.38;100.00;95754.91;1029909;28;20132;-73
2023/05/13 00:36:28;;;;;;;3.13;2.45;;;;;;;8.37;100.00;95750.69;1025994;28;20035;-73
2023/05/13 00:36:59;;;;;;;2.50;2.30;;;;;;;8.41;100.00;95753.63;1022010;28;20038;-73
2023/05/13 00:37:30;;;;;;;2.90;2.58;;;;;;;8.38;100.00;95756.75;1022128;28;20035;-71
2023/05/13 00:38:00;;;;;;;3.10;2.70;;;;;;;8.27;100.00;95743.56;1025941;28;20278;-73
2023/05/13 00:38:31;;;;;;;3.60;2.70;;;;;;;8.33;100.00;95752.25;1026063;28;20776;-73
2023/05/13 00:39:02;;;;;;;4.32;2.80;;;;;;;8.36;100.00;95748.34;1029598;28;20097;-72
2023/05/13 00:39:33;;;;;;;2.80;2.40;;;;;;;8.33;100.00;95748.84;1026079;28;20106;-73
2023/05/13 00:40:04;;;;;;;3.28;2.60;;;;;;;8.31;100.00;95743.06;1021967;28;20281;-73
2023/05/13 00:40:38;;;;;;;4.25;2.70;;;;;;;8.31;100.00;95753.50;1017985;29;20099;-72
2023/05/13 00:41:08;;;;;;;2.72;2.45;;;;;;;8.29;100.00;95759.00;1019630;28;20055;-73
2023/05/13 00:41:39;;;;;;;3.60;2.67;;;;;;;8.25;100.00;95748.25;1022429;28;20262;-72
2023/05/13 00:42:12;;;;;;;2.90;2.47;;;;;;;8.24;100.00;95744.03;1022729;28;20796;-73
2023/05/13 00:42:43;;;;;;;4.10;2.60;;;;;;;8.31;100.00;95751.69;1022448;28;20122;-72
2023/05/13 00:43:13;;;;;;;2.97;2.30;;;;;;;8.32;100.00;95749.88;1026403;28;20360;-72
2023/05/13 00:43:44;;;;;;;2.80;2.35;;;;;;;8.36;100.00;95750.97;1022251;28;20130;-71
2023/05/13 00:44:14;;;;;;;2.70;2.50;;;;;;;8.33;100.00;95754.06;1019356;28;20032;-73
2023/05/13 00:44:45;;;;;;;3.40;2.83;;;;;;;8.33;100.00;95754.84;1026907;28;20403;-73
2023/05/13 00:45:16;;;;;;;3.95;2.50;;;;;;;8.30;100.00;95746.72;1026592;28;20053;-73
2023/05/13 00:45:46;;;;;;;4.15;2.45;;;;;;;8.36;100.00;95754.34;1024850;28;20039;-72
2023/05/13 00:46:17;;;;;;;2.53;2.33;;;;;;;8.34;100.00;95753.03;1026749;28;20042;-73
2023/05/13 00:46:48;;;;;;;3.42;2.60;;;;;;;8.34;100.00;95751.19;1026797;28;20640;-72
2023/05/13 00:47:18;;;;;;;3.45;2.60;;;;;;;8.35;100.00;95749.34;1025664;28;20074;-72
2023/05/13 00:47:49;;;;;;;2.53;2.30;;;;;;;8.36;100.00;95743.13;1019307;29;20552;-73
2023/05/13 00:48:20;;;;;;;3.25;2.58;;;;;;;8.36;100.00;95748.34;1018806;29;20744;-71
2023/05/13 00:48:50;;;;;;;4.35;2.78;;;;;;;8.37;100.00;95749.91;1014392;29;20520;-71
2023/05/13 00:49:21;;;;;;;2.60;2.38;;;;;;;8.38;100.00;95747.06;1014681;29;20847;-73
2023/05/13 00:49:51;;;;;;;4.60;2.30;;;;;;;8.38;100.00;95748.91;1022871;28;20038;-70
2023/05/13 00:50:22;;;;;;;3.10;2.40;;;;;;;8.38;100.00;95746.28;1018871;29;20393;-73
2023/05/13 00:50:52;;;;;;;3.25;2.88;;;;;;;8.39;100.00;95747.88;1018763;29;20087;-72
2023/05/13 00:51:22;;;;;;;5.53;2.80;;;;;;;8.37;100.00;95749.91;1022745;28;20485;-72
2023/05/13 00:51:54;;;;;;;3.67;3.00;;;;;;;8.36;100.00;95743.13;1027082;28;20428;-72
2023/05/13 00:52:24;;;;;;;3.75;2.58;;;;;;;8.37;100.00;95745.47;1026594;28;20055;-72
2023/05/13 00:52:54;;;;;;;3.15;2.60;;;;;;;8.32;100.00;95742.81;1026670;28;20254;-73
2023/05/13 00:53:25;;;;;;;3.00;2.70;;;;;;;8.30;100.00;95734.44;1022749;29;20042;-72
2023/05/13 00:53:57;;;;;;;2.83;2.50;;;;;;;8.38;100.00;95754.91;1026703;28;20042;-71
2023/05/13 00:54:28;;;;;;;5.88;2.70;;;;;;;8.34;100.00;95739.94;1022488;29;20138;-73
2023/05/13 00:54:58;;;;;;;3.75;2.70;;;;;;;8.40;100.00;95747.63;1026602;28;20270;-73
2023/05/13 00:55:29;;;;;;;3.38;3.03;;;;;;;8.39;100.00;95747.88;1022684;29;20444;-73
2023/05/13 00:55:59;;;;;;;4.57;3.03;;;;;;;8.34;100.00;95745.19;1018904;29;20035;-73
2023/05/13 00:56:30;;;;;;;3.75;2.85;;;;;;;8.38;100.00;95748.91;1022774;28;20035;-73
2023/05/13 00:57:00;;;;;;;3.00;2.70;;;;;;;8.36;100.00;95748.34;1022656;28;20429;-72
2023/05/13 00:57:31;;;;;;;2.88;2.28;;;;;;;8.34;100.00;95742.56;1026969;28;20043;-72
2023/05/13 00:58:02;;;;;;;2.70;2.50;;;;;;;8.34;100.00;95751.19;1022753;29;20469;-73
2023/05/13 00:58:32;;;;;;;3.13;2.72;;;;;;;8.34;100.00;95753.03;1022539;28;20062;-72
2023/05/13 00:59:03;;;;;;;2.78;2.58;;;;;;;8.33;100.00;95751.44;1030136;28;20038;-72
2023/05/13 00:59:33;;;;;;;2.60;2.40;;;;;;;8.33;100.00;95748.84;1030719;28;20035;-72
2023/05/13 01:00:04;;;;;;;4.40;2.65;;;;;;;8.30;100.00;95750.13;1034966;28;20417;-72
2023/05/13 01:00:57;;;;;;;3.58;2.88;;;;;;;8.31;100.00;95750.91;1034561;28;20037;-72
2023/05/13 01:01:33;;;;;;;2.65;2.25;;;;;;;8.30;100.00;95747.50;1014438;29;20264;-72
2023/05/13 01:02:49;;;;;;;2.65;2.22;;;;;;;8.30;100.00;95746.72;1010180;29;20287;-73
2023/05/13 01:03:49;;;;;;;2.75;2.42;;;;;;;8.34;100.00;95753.81;1023294;28;21067;-74
2023/05/13 01:04:42;;;;;;;3.50;2.58;;;;;;;8.36;100.00;95748.34;1022690;28;20358;-72
2023/05/13 01:05:23;;;;;;;3.33;2.58;;;;;;;8.35;100.00;95751.97;1030784;28;20054;-72
2023/05/13 01:06:07;;;;;;;2.75;2.13;;;;;;;8.33;100.00;95748.84;1022974;28;20275;-72
2023/05/13 01:07:03;;;;;;;2.72;2.45;;;;;;;8.34;100.00;95750.41;1020813;29;20055;-72
2023/05/13 01:08:11;;;;;;;4.38;2.72;;;;;;;8.35;100.00;95746.75;1023870;28;20274;-72
2023/05/13 01:08:57;;;;;;;2.55;2.25;;;;;;;8.39;100.00;95753.13;1035772;28;20356;-73
2023/05/13 01:09:45;;;;;;;2.85;2.30;;;;;;;8.31;100.00;95758.75;1037736;28;20347;-73
2023/05/13 01:10:22;;;;;;;5.53;2.72;;;;;;;8.34;100.00;95760.88;1039150;28;20610;-72
2023/05/13 01:10:58;;;;;;;3.00;2.55;;;;;;;8.36;100.00;95764.03;1030865;28;20269;-72
2023/05/13 01:11:33;;;;;;;3.15;2.35;;;;;;;8.38;100.00;95756.75;1026644;28;20274;-72
2023/05/13 01:12:07;;;;;;;2.63;2.30;;;;;;;8.33;100.00;95756.69;1018922;29;20275;-73
2023/05/13 01:12:39;;;;;;;2.80;2.50;;;;;;;8.32;100.00;95753.28;1018426;29;20303;-73
2023/05/13 01:13:13;;;;;;;3.00;2.70;;;;;;;8.34;100.00;95756.41;1022189;29;20282;-73
2023/05/13 01:13:45;;;;;;;3.13;2.65;;;;;;;8.32;100.00;95755.13;1026773;28;20319;-73
2023/05/13 01:14:22;;;;;;;2.92;2.50;;;;;;;8.30;100.00;95754.56;1022655;29;20270;-73
2023/05/13 01:15:14;;;;;;;2.58;2.38;;;;;;;8.26;100.00;95749.81;1022224;29;20279;-72
2023/05/13 01:16:09;;;;;;;3.47;2.30;;;;;;;8.25;100.00;95748.25;1020064;29;20374;-73
2023/05/13 01:17:05;;;;;;;4.00;2.40;;;;;;;8.31;100.00;95759.53;1018370;28;20616;-71
2023/05/13 01:18:03;;;;;;;3.03;2.70;;;;;;;8.31;100.00;95761.34;1023548;28;20325;-72
2023/05/13 01:18:42;;;;;;;5.00;2.53;;;;;;;8.26;100.00;95755.06;1025078;28;20791;-71
2023/05/13 01:19:38;;;;;;;5.07;2.72;;;;;;;8.26;100.00;95757.66;1023439;28;20301;-73
2023/05/13 01:20:09;;;;;;;5.70;3.42;;;;;;;8.21;100.00;95755.00;1018573;29;20884;-72
2023/05/13 01:20:41;;;;;;;3.03;2.03;;;;;;;8.26;100.00;95749.81;1022812;29;20265;-73
2023/05/13 01:21:11;;;;;;;2.80;2.60;;;;;;;8.23;100.00;95747.69;1026623;28;20038;-72
2023/05/13 01:21:42;;;;;;;3.65;2.58;;;;;;;8.30;100.00;95757.19;1027028;28;20488;-72
2023/05/13 01:22:13;;;;;;;3.38;2.92;;;;;;;8.23;100.00;95745.09;1026120;28;20037;-72
2023/05/13 01:22:43;;;;;;;3.08;2.78;;;;;;;8.27;100.00;95754.00;1018307;29;20052;-72
2023/05/13 01:23:13;;;;;;;3.13;2.83;;;;;;;8.26;100.00;95755.06;1021652;28;20031;-72
2023/05/13 01:23:44;;;;;;;3.15;2.72;;;;;;;8.26;100.00;95756.88;1026566;28;20126;-73
2023/05/13 01:24:15;;;;;;;5.13;3.67;;;;;;;8.28;100.00;95746.94;1022535;28;20050;-73
2023/05/13 01:24:45;;;;;;;3.17;2.88;;;;;;;8.27;100.00;95751.41;1022472;28;20047;-74
2023/05/13 01:25:16;;;;;;;4.05;2.97;;;;;;;8.29;100.00;95751.16;1026710;28;20018;-72
2023/05/13 01:25:47;;;;;;;3.30;2.85;;;;;;;8.26;100.00;95749.03;1030721;28;20603;-73
2023/05/13 01:26:19;;;;;;;4.28;3.33;;;;;;;8.29;100.00;95758.22;1018415;29;20031;-71
2023/05/13 01:26:49;;;;;;;3.92;3.30;;;;;;;8.27;100.00;95755.84;1022522;29;20279;-72
2023/05/13 01:27:20;;;;;;;3.38;2.80;;;;;;;8.23;100.00;95749.53;1019276;29;20275;-72
2023/05/13 01:27:51;;;;;;;5.90;2.70;;;;;;;8.25;100.00;95752.69;1022813;28;20090;-73
2023/05/13 01:28:22;;;;;;;7.85;2.97;;;;;;;8.30;100.00;95759.78;1022473;29;20031;-72
2023/05/13 01:28:52;;;;;;;4.72;2.88;;;;;;;8.31;100.00;95756.91;1018036;29;20379;-70
2023/05/13 01:29:23;;;;;;;3.53;2.75;;;;;;;8.33;100.00;95759.28;1014778;29;20028;-73
2023/05/13 01:29:53;;;;;;;3.67;2.80;;;;;;;8.33;100.00;95759.28;1014567;29;20036;-72
2023/05/13 01:30:24;;;;;;;3.75;3.35;;;;;;;8.35;100.00;95762.44;1018626;29;20035;-73
2023/05/13 01:30:55;;;;;;;3.08;2.70;;;;;;;8.34;100.00;95756.41;1022651;29;20428;-73
2023/05/13 01:31:26;;;;;;;3.78;3.10;;;;;;;8.37;100.00;95755.94;1018667;29;20027;-72
2023/05/13 01:31:56;;;;;;;3.42;3.08;;;;;;;8.35;100.00;95751.97;1018550;29;20264;-72
2023/05/13 01:32:27;;;;;;;3.83;3.05;;;;;;;8.37;100.00;95757.75;1022215;29;20035;-72
2023/05/13 01:32:57;;;;;;;4.13;2.92;;;;;;;8.37;100.00;95755.16;1026877;28;20023;-73
2023/05/13 01:33:28;;;;;;;3.20;2.90;;;;;;;8.29;100.00;95748.53;1026594;28;20109;-72
2023/05/13 01:33:58;;;;;;;3.70;3.10;;;;;;;8.36;100.00;95756.19;1022735;28;20035;-72
2023/05/13 01:34:29;;;;;;;3.70;3.28;;;;;;;8.37;100.00;95750.69;1026449;28;20031;-72
2023/05/13 01:34:59;;;;;;;5.30;3.30;;;;;;;8.39;100.00;95759.13;1016161;29;20558;-73
2023/05/13 01:35:30;;;;;;;4.18;3.30;;;;;;;8.39;100.00;95753.13;1022971;28;20081;-72
2023/05/13 01:36:01;;;;;;;5.18;2.92;;;;;;;8.29;100.00;95737.31;1022442;29;20023;-72
2023/05/13 01:36:31;;;;;;;3.35;3.00;;;;;;;8.33;100.00;95751.44;1022756;28;20114;-73
2023/05/13 01:37:02;;;;;;;3.97;3.28;;;;;;;8.34;100.00;95747.78;1022647;29;20267;-73
2023/05/13 01:37:32;;;;;;;3.30;2.90;;;;;;;8.38;100.00;95762.75;1014753;29;20032;-73
2023/05/13 01:38:03;;;;;;;3.03;2.60;;;;;;;8.34;100.00;95756.41;1018777;29;20035;-73
2023/05/13 01:38:34;;;;;;;3.67;3.20;;;;;;;8.31;100.00;95750.91;1028698;28;20456;-72
2023/05/13 01:39:05;;;;;;;7.85;3.50;;;;;;;8.33;100.00;95743.63;1022114;29;20469;-72
2023/05/13 01:39:38;;;;;;;4.68;3.28;;;;;;;8.40;100.00;95755.47;1023175;28;20274;-72
2023/05/13 01:40:09;;;;;;;6.10;3.00;;;;;;;8.41;100.00;95761.47;1030409;28;20526;-72
2023/05/13 01:40:40;;;;;;;3.70;3.30;;;;;;;8.46;100.00;95756.31;1026941;28;20452;-74
2023/05/13 01:41:10;;;;;;;4.32;3.00;;;;;;;8.46;100.00;95759.72;1030886;28;20380;-73
2023/05/13 01:41:41;;;;;;;3.70;2.88;;;;;;;8.48;100.00;95757.66;1025604;28;20037;-72
2023/05/13 01:42:11;;;;;;;3.90;3.00;;;;;;;8.46;100.00;95757.09;1023043;28;20079;-73
2023/05/13 01:42:42;;;;;;;4.93;3.20;;;;;;;8.40;100.00;95754.69;1024975;28;20039;-73
2023/05/13 01:43:12;;;;;;;4.40;3.63;;;;;;;8.41;100.00;95756.25;1026758;28;20031;-73
2023/05/13 01:43:43;;;;;;;4.03;2.95;;;;;;;8.41;100.00;95761.47;1023206;28;20035;-73
2023/05/13 01:44:14;;;;;;;3.75;3.25;;;;;;;8.41;100.00;95761.47;1018595;29;20063;-72
2023/05/13 01:44:45;;;;;;;4.18;3.72;;;;;;;8.40;100.00;95760.69;1018601;29;20028;-73
2023/05/13 01:45:15;;;;;;;3.08;2.78;;;;;;;8.42;100.00;95755.22;1025147;28;20263;-71
2023/05/13 01:45:46;;;;;;;4.05;3.15;;;;;;;8.44;100.00;95755.75;1022106;28;20039;-72
2023/05/13 01:46:17;;;;;;;3.88;3.30;;;;;;;8.48;100.00;95764.69;1014966;29;20074;-73
2023/05/13 01:46:49;;;;;;;4.45;3.55;;;;;;;8.44;100.00;95753.94;1018488;29;20050;-74
2023/05/13 01:47:19;;;;;;;6.35;3.13;;;;;;;8.50;100.00;95760.00;1023586;28;20046;-73
2023/05/13 01:47:50;;;;;;;4.47;3.25;;;;;;;8.49;100.00;95758.44;1022815;29;20282;-73
2023/05/13 01:48:20;;;;;;;4.63;3.15;;;;;;;8.46;100.00;95758.94;1018822;29;20039;-73
2023/05/13 01:48:51;;;;;;;3.95;3.03;;;;;;;8.44;100.00;95766.22;1022106;28;20086;-73
2023/05/13 01:49:21;;;;;;;5.22;3.53;;;;;;;8.48;100.00;95756.84;1030356;28;20381;-72
2023/05/13 01:49:51;;;;;;;3.88;3.10;;;;;;;8.45;100.00;95759.94;1030475;28;20037;-72
2023/05/13 01:50:22;;;;;;;4.95;3.67;;;;;;;8.46;100.00;95759.72;1029972;28;20031;-73
2023/05/13 01:50:53;;;;;;;5.80;3.58;;;;;;;8.49;100.00;95753.19;1031792;28;20109;-72
2023/05/13 01:51:23;;;;;;;5.75;3.67;;;;;;;8.50;100.00;95760.00;1026543;28;20027;-73
2023/05/13 01:51:54;;;;;;;5.68;3.33;;;;;;;8.54;100.00;95758.47;1018814;29;20260;-73
2023/05/13 01:52:24;;;;;;;4.15;3.13;;;;;;;8.53;100.00;95759.50;1022445;29;20437;-73
2023/05/13 01:52:56;;;;;;;5.65;3.72;;;;;;;8.54;100.00;95760.28;1018575;28;20661;-72
2023/05/13 01:53:26;;;;;;;7.30;3.70;;;;;;;8.46;100.00;95749.25;1027222;28;20027;-72
2023/05/13 01:53:57;;;;;;;4.15;3.13;;;;;;;8.55;100.00;95760.06;1030547;28;20743;-73
2023/05/13 01:54:27;;;;;;;5.10;3.13;;;;;;;8.55;100.00;95754.81;1030656;28;20198;-73
2023/05/13 01:54:58;;;;;;;4.70;3.65;;;;;;;8.55;100.00;95760.06;1034485;28;20112;-73
2023/05/13 01:55:29;;;;;;;4.10;3.60;;;;;;;8.50;100.00;95760.78;1034502;28;20084;-72
2023/05/13 01:55:59;;;;;;;9.40;3.53;;;;;;;8.48;100.00;95754.22;1038237;28;20271;-73
2023/05/13 01:56:30;;;;;;;4.05;3.38;;;;;;;8.49;100.00;95753.97;1030397;28;20038;-72
2023/05/13 01:57:00;;;;;;;8.23;4.10;;;;;;;8.43;100.00;95754.97;1026491;28;20098;-71
2023/05/13 01:57:31;;;;;;;4.85;3.00;;;;;;;8.43;100.00;95754.19;1018449;29;20047;-72
2023/05/13 01:58:01;;;;;;;5.75;3.55;;;;;;;8.43;100.00;95754.97;1014891;29;20048;-72
2023/05/13 01:58:32;;;;;;;5.47;3.63;;;;;;;8.36;100.00;95743.91;1022639;28;20085;-73
2023/05/13 01:59:02;;;;;;;4.30;3.28;;;;;;;8.39;100.00;95740.81;1022436;28;20134;-72
2023/05/13 01:59:33;;;;;;;5.38;3.83;;;;;;;8.40;100.00;95752.84;1022084;29;20039;-72
2023/05/13 02:00:05;;;;;;;4.22;3.80;;;;;;;8.40;100.00;95752.06;1022793;29;20027;-72
2023/05/13 02:00:35;;;;;;;4.30;3.70;;;;;;;8.42;100.00;95750.78;1018888;29;20040;-72
2023/05/13 02:01:06;;;;;;;5.13;3.60;;;;;;;8.41;100.00;95759.66;1022888;28;20641;-72
2023/05/13 02:01:36;;;;;;;5.72;3.83;;;;;;;8.46;100.00;95756.31;1026678;28;20129;-72
2023/05/13 02:02:06;;;;;;;3.67;3.25;;;;;;;8.43;100.00;95743.72;1022813;28;20565;-72
2023/05/13 02:02:37;;;;;;;4.88;3.42;;;;;;;8.41;100.00;95751.03;1026549;28;20038;-73
2023/05/13 02:03:07;;;;;;;4.65;3.75;;;;;;;8.39;100.00;95750.50;1026667;28;20422;-73
2023/05/13 02:03:38;;;;;;;3.90;3.10;;;;;;;8.40;100.00;95750.22;1026475;28;20027;-72
2023/05/13 02:04:08;;;;;;;6.45;3.88;;;;;;;8.39;100.00;95750.50;1022633;28;20035;-72
2023/05/13 02:04:39;;;;;;;4.28;3.38;;;;;;;8.39;100.00;95753.13;1026526;28;20027;-72
2023/05/13 02:05:09;;;;;;;4.68;3.35;;;;;;;8.41;100.00;95756.25;1026647;28;20034;-73
2023/05/13 02:05:40;;;;;;;5.10;3.63;;;;;;;8.40;100.00;95752.06;1030494;28;20129;-73
2023/05/13 02:06:10;;;;;;;4.40;3.72;;;;;;;8.43;100.00;95756.81;1030433;28;20033;-73
2023/05/13 02:06:41;;;;;;;4.32;3.33;;;;;;;8.41;100.00;95753.63;1030716;28;20797;-71
2023/05/13 02:07:11;;;;;;;6.30;3.65;;;;;;;8.44;100.00;95750.53;1030356;28;20034;-72
2023/05/13 02:07:41;;;;;;;5.90;3.83;;;;;;;8.44;100.00;95753.13;1030247;28;20039;-72
2023/05/13 02:08:12;;;;;;;5.47;3.67;;;;;;;8.35;100.00;95744.13;1030716;28;20033;-73
2023/05/13 02:08:42;;;;;;;4.50;3.47;;;;;;;8.43;100.00;95751.56;1025985;28;20499;-72
2023/05/13 02:09:13;;;;;;;4.30;3.22;;;;;;;8.47;100.00;95757.88;1034410;28;20044;-72
2023/05/13 02:09:43;;;;;;;5.95;3.75;;;;;;;8.46;100.00;95756.31;1026146;28;20027;-71
2023/05/13 02:10:14;;;;;;;6.40;3.92;;;;;;;8.46;100.00;95754.47;1026502;28;20038;-73
2023/05/13 02:10:44;;;;;;;6.15;4.50;;;;;;;8.40;100.00;95754.69;1026343;28;20082;-73
2023/05/13 02:11:15;;;;;;;5.43;3.95;;;;;;;8.34;100.00;95750.41;1018486;28;20024;-73
2023/05/13 02:11:46;;;;;;;6.35;3.70;;;;;;;8.39;100.00;95753.91;1018301;29;20215;-72
2023/05/13 02:12:16;;;;;;;5.22;3.50;;;;;;;8.40;100.00;95757.28;1022591;29;20247;-73
2023/05/13 02:12:47;;;;;;;4.35;3.55;;;;;;;8.39;100.00;95753.13;1026155;28;20374;-72
2023/05/13 02:13:17;;;;;;;6.60;4.43;;;;;;;8.40;100.00;95759.91;1026707;28;20494;-72
2023/05/13 02:13:47;;;;;;;5.70;3.95;;;;;;;8.34;100.00;95759.03;1030404;28;20527;-73
2023/05/13 02:14:18;;;;;;;6.53;4.40;;;;;;;8.34;100.00;95760.88;1026460;28;20050;-73
2023/05/13 02:14:48;;;;;;;5.45;3.88;;;;;;;8.35;100.00;95760.63;1022348;28;20039;-73
2023/05/13 02:15:19;;;;;;;5.60;4.13;;;;;;;8.32;100.00;95755.91;1026469;28;20023;-72
2023/05/13 02:15:49;;;;;;;5.13;3.78;;;;;;;8.27;100.00;95745.38;1022475;28;20088;-72
2023/05/13 02:16:20;;;;;;;5.65;3.55;;;;;;;8.35;100.00;95757.22;1022563;29;20029;-73
2023/05/13 02:16:51;;;;;;;5.07;4.18;;;;;;;8.36;100.00;95761.41;1018460;29;20019;-72
2023/05/13 02:17:21;;;;;;;4.70;3.85;;;;;;;8.36;100.00;95758.81;1018751;29;20036;-72
2023/05/13 02:17:52;;;;;;;4.70;3.75;;;;;;;8.36;100.00;95754.34;1018812;28;20023;-71
2023/05/13 02:18:22;;;;;;;4.90;3.20;;;;;;;8.38;100.00;95754.13;1026696;28;20090;-72
2023/05/13 02:18:52;;;;;;;6.13;3.90;;;;;;;8.42;100.00;95757.84;1029595;28;20026;-72
2023/05/13 02:19:23;;;;;;;4.57;3.70;;;;;;;8.44;100.00;95763.59;1026478;28;20029;-72
2023/05/13 02:19:54;;;;;;;7.38;3.70;;;;;;;8.47;100.00;95763.09;1022149;29;20517;-72
2023/05/13 02:20:25;;;;;;;4.28;3.40;;;;;;;8.44;100.00;95755.75;1018805;28;20028;-72
2023/05/13 02:20:56;;;;;;;5.28;3.90;;;;;;;8.44;100.00;95756.53;1028480;28;20019;-73
2023/05/13 02:21:26;;;;;;;3.83;3.03;;;;;;;8.43;100.00;95760.19;1022666;28;20271;-73
2023/05/13 02:21:57;;;;;;;4.80;3.83;;;;;;;8.39;100.00;95755.72;1022853;28;20262;-72
2023/05/13 02:22:27;;;;;;;5.32;3.72;;;;;;;8.36;100.00;95753.56;1018703;29;20031;-72
2023/05/13 02:22:58;;;;;;;4.80;3.78;;;;;;;8.36;100.00;95750.97;1022620;28;20034;-72
2023/05/13 02:23:28;;;;;;;4.68;3.88;;;;;;;8.37;100.00;95753.31;1026565;28;20038;-72
2023/05/13 02:23:59;;;;;;;5.75;3.45;;;;;;;8.38;100.00;95756.75;1027394;28;20030;-73
2023/05/13 02:24:29;;;;;;;6.13;4.05;;;;;;;8.33;100.00;95743.63;1027279;28;20031;-72
2023/05/13 02:25:01;;;;;;;6.75;3.90;;;;;;;8.39;100.00;95753.13;1019375;29;20073;-72
2023/05/13 02:25:31;;;;;;;7.70;4.80;;;;;;;8.37;100.00;95747.31;1018925;29;20111;-72
2023/05/13 02:26:02;;;;;;;12.45;3.78;;;;;;;8.31;100.00;95740.44;1018974;29;20255;-72
2023/05/13 02:26:32;;;;;;;5.90;4.00;;;;;;;8.38;100.00;95754.91;1018540;29;20394;-73
2023/05/13 02:27:03;;;;;;;5.28;3.95;;;;;;;8.39;100.00;95758.34;1014845;29;20088;-73
2023/05/13 02:27:33;;;;;;;5.82;4.32;;;;;;;8.36;100.00;95756.19;1019064;28;20117;-73
2023/05/13 02:28:04;;;;;;;5.85;3.90;;;;;;;8.39;100.00;95750.50;1018934;29;20044;-72
2023/05/13 02:28:35;;;;;;;4.70;3.78;;;;;;;8.34;100.00;95745.19;1022622;29;20031;-72
2023/05/13 02:29:05;;;;;;;7.65;4.20;;;;;;;8.41;100.00;95749.19;1018847;29;20031;-72
2023/05/13 02:29:36;;;;;;;6.03;3.55;;;;;;;8.39;100.00;95753.13;1015300;29;20477;-70
2023/05/13 02:30:07;;;;;;;4.22;3.30;;;;;;;8.43;100.00;95754.97;1023279;28;20464;-73
2023/05/13 02:30:37;;;;;;;5.75;3.58;;;;;;;8.42;100.00;95748.19;1023230;28;20038;-73
2023/05/13 02:31:08;;;;;;;6.22;3.92;;;;;;;8.43;100.00;95754.97;1023074;28;20436;-72